createdAt,value
2018-05-26T00:01:24.004Z,56.80
2018-05-26T00:05:26.527Z,56.70
2018-05-26T00:09:29.061Z,56.50
2018-05-26T00:13:31.587Z,56.80
2018-05-26T00:17:34.123Z,56.50
2018-05-26T00:21:36.635Z,56.40
2018-05-26T00:25:39.160Z,56.70
2018-05-26T00:29:42.595Z,56.80
2018-05-26T00:33:45.141Z,56.70
2018-05-26T00:37:48.457Z,57.30
2018-05-26T00:41:51.764Z,57.90
2018-05-26T00:45:55.046Z,58.70
2018-05-26T00:49:57.575Z,58.70
2018-05-26T00:54:00.868Z,57.30
2018-05-26T00:58:03.405Z,57.40
2018-05-26T01:02:05.931Z,58.10
2018-05-26T01:06:08.443Z,57.80
2018-05-26T01:10:10.989Z,57.50
2018-05-26T01:14:14.283Z,58.30
2018-05-26T01:18:17.580Z,57.90
2018-05-26T01:22:20.103Z,57.80
2018-05-26T01:26:22.626Z,58.40
2018-05-26T01:30:25.141Z,57.70
2018-05-26T01:34:28.435Z,58.00
2018-05-26T01:38:31.734Z,58.00
2018-05-26T01:42:34.262Z,58.40
2018-05-26T01:46:36.794Z,58.10
2018-05-26T01:50:39.295Z,58.40
2018-05-26T01:54:42.588Z,58.30
2018-05-26T01:58:45.120Z,58.20
2018-05-26T02:02:47.647Z,58.40
2018-05-26T02:06:50.175Z,58.70
2018-05-26T02:10:52.687Z,59.40
2018-05-26T02:14:55.222Z,58.80
2018-05-26T02:18:58.516Z,59.10
2018-05-26T02:23:01.066Z,59.10
2018-05-26T02:27:03.607Z,58.90
2018-05-26T02:31:06.120Z,59.60
2018-05-26T02:35:08.647Z,59.10
2018-05-26T02:39:11.175Z,58.50
2018-05-26T02:43:13.702Z,59.20
2018-05-26T02:47:16.267Z,60.20
2018-05-26T02:51:18.773Z,59.50
2018-05-26T02:55:21.308Z,58.90
2018-05-26T02:59:23.840Z,59.30
2018-05-26T03:03:26.367Z,59.20
2018-05-26T03:07:35.267Z,60.60
2018-05-26T03:11:43.396Z,61.40
2018-05-26T03:16:03.618Z,60.60
2018-05-26T03:20:06.143Z,60.80
2018-05-26T03:24:08.680Z,59.70
2018-05-26T03:28:11.987Z,60.50
2018-05-26T03:32:15.259Z,60.30
2018-05-26T03:36:17.792Z,60.30
2018-05-26T03:40:20.327Z,61.40
2018-05-26T03:44:22.851Z,60.00
2018-05-26T03:48:25.384Z,60.10
2018-05-26T03:52:27.894Z,60.90
2018-05-26T03:56:42.139Z,61.00
2018-05-26T04:00:44.669Z,60.70
2018-05-26T04:04:47.195Z,60.30
2018-05-26T04:08:50.550Z,60.60
2018-05-26T04:12:53.066Z,62.50
2018-05-26T04:16:55.592Z,62.70
2018-05-26T04:20:58.114Z,60.00
2018-05-26T04:25:00.639Z,61.40
2018-05-26T04:29:03.164Z,62.20
2018-05-26T04:33:06.464Z,61.50
2018-05-26T04:37:09.756Z,60.90
2018-05-26T04:41:13.054Z,60.40
2018-05-26T04:45:16.353Z,60.40
2018-05-26T04:49:18.885Z,60.40
2018-05-26T04:53:21.424Z,60.60
2018-05-26T04:57:23.931Z,60.30
2018-05-26T05:01:27.233Z,59.80
2018-05-26T05:05:30.555Z,60.10
2018-05-26T05:09:33.087Z,60.20
2018-05-26T05:13:35.611Z,60.50
2018-05-26T05:17:38.115Z,59.90
2018-05-26T05:21:40.644Z,60.50
2018-05-26T05:25:43.187Z,59.90
2018-05-26T05:29:45.711Z,59.20
2018-05-26T05:33:48.241Z,60.30
2018-05-26T05:37:50.749Z,59.20
2018-05-26T05:41:53.278Z,59.10
2018-05-26T05:45:55.834Z,59.00
2018-05-26T05:49:58.358Z,62.20
2018-05-26T05:54:01.657Z,59.50
2018-05-26T05:58:04.958Z,59.60
2018-05-26T06:02:07.482Z,59.60
2018-05-26T06:06:10.025Z,59.70
2018-05-26T06:10:12.555Z,59.90
2018-05-26T06:14:15.103Z,58.90
2018-05-26T06:18:18.376Z,60.70
2018-05-26T06:22:20.908Z,61.40
2018-05-26T06:26:23.483Z,59.00
2018-05-26T06:30:25.995Z,60.60
2018-05-26T06:34:28.532Z,61.50
2018-05-26T06:38:31.038Z,60.00
2018-05-26T06:42:34.331Z,60.00
2018-05-26T06:46:37.619Z,59.40
2018-05-26T06:50:40.155Z,59.40
2018-05-26T06:54:42.687Z,58.80
2018-05-26T06:58:45.205Z,60.00
2018-05-26T07:02:47.734Z,59.30
2018-05-26T07:06:50.268Z,58.70
2018-05-26T07:10:53.570Z,58.70
2018-05-26T07:14:56.867Z,58.90
2018-05-26T07:19:00.138Z,59.00
2018-05-26T07:23:02.676Z,59.00
2018-05-26T07:27:05.266Z,59.90
2018-05-26T07:31:08.535Z,58.50
2018-05-26T07:35:11.838Z,58.60
2018-05-26T07:39:14.347Z,58.50
2018-05-26T07:43:16.883Z,58.30
2018-05-26T07:47:19.485Z,59.00
2018-05-26T07:51:22.747Z,60.30
2018-05-26T07:55:25.343Z,60.20
2018-05-26T07:59:27.856Z,58.80
2018-05-26T08:03:30.398Z,58.60
2018-05-26T08:07:32.919Z,59.30
2018-05-26T08:11:35.446Z,58.30
2018-05-26T08:15:37.980Z,58.40
2018-05-26T08:19:40.494Z,58.40
2018-05-26T08:23:43.786Z,58.90
2018-05-26T08:27:47.083Z,59.20
2018-05-26T08:31:49.987Z,58.70
2018-05-26T08:35:53.299Z,59.50
2018-05-26T08:39:56.579Z,60.00
2018-05-26T08:44:03.450Z,59.90
2018-05-26T08:48:05.993Z,59.00
2018-05-26T08:52:08.527Z,58.70
2018-05-26T08:56:11.848Z,58.80
2018-05-26T09:00:15.132Z,59.30
2018-05-26T09:04:17.666Z,59.30
2018-05-26T09:08:20.225Z,58.70
2018-05-26T09:12:23.544Z,58.90
2018-05-26T09:16:26.084Z,58.80
2018-05-26T09:20:28.600Z,59.00
2018-05-26T09:24:31.922Z,59.10
2018-05-26T09:28:34.454Z,59.10
2018-05-26T09:32:37.000Z,59.10
2018-05-26T09:36:39.546Z,59.10
2018-05-26T09:40:42.830Z,59.10
2018-05-26T09:44:45.371Z,59.10
2018-05-26T09:48:47.915Z,59.10
2018-05-26T09:52:50.467Z,58.60
2018-05-26T09:56:52.995Z,59.20
2018-05-26T10:00:56.310Z,58.10
2018-05-26T10:04:59.592Z,58.80
2018-05-26T10:09:02.896Z,58.40
2018-05-26T10:13:06.206Z,58.40
2018-05-26T10:17:10.483Z,58.80
2018-05-26T10:21:13.840Z,58.60
2018-05-26T10:25:17.118Z,58.30
2018-05-26T10:29:19.674Z,58.30
2018-05-26T10:33:22.211Z,57.00
2018-05-26T10:37:25.506Z,56.30
2018-05-26T10:41:28.803Z,56.10
2018-05-26T10:45:38.758Z,55.80
2018-05-26T10:49:41.287Z,56.10
2018-05-26T10:53:44.585Z,56.90
2018-05-26T10:57:47.119Z,56.30
2018-05-26T11:01:49.647Z,53.60
2018-05-26T11:05:52.156Z,53.80
2018-05-26T11:09:54.703Z,53.30
2018-05-26T11:13:58.013Z,51.90
2018-05-26T11:18:00.869Z,52.00
2018-05-26T11:22:04.393Z,53.60
2018-05-26T11:26:07.019Z,53.70
2018-05-26T11:30:09.837Z,53.50
2018-05-26T11:34:13.174Z,53.50
2018-05-26T11:38:16.725Z,53.50
2018-05-26T11:42:19.863Z,53.60
2018-05-26T11:46:22.791Z,52.30
2018-05-26T11:50:26.232Z,52.10
2018-05-26T11:54:29.534Z,52.10
2018-05-26T11:58:32.541Z,52.00
2018-05-26T12:02:35.341Z,49.90
2018-05-26T12:06:38.444Z,50.90
2018-05-26T12:10:41.453Z,51.50
2018-05-26T12:14:46.123Z,51.30
2018-05-26T12:18:49.066Z,51.30
2018-05-26T12:22:51.745Z,50.10
2018-05-26T12:26:54.533Z,52.10
2018-05-26T12:30:57.170Z,50.30
2018-05-26T12:35:01.720Z,50.60
2018-05-26T12:39:04.263Z,50.20
2018-05-26T12:43:06.800Z,48.30
2018-05-26T12:47:09.348Z,45.90
2018-05-26T12:51:12.641Z,49.50
2018-05-26T12:55:15.357Z,49.20
2018-05-26T12:59:17.901Z,50.20
2018-05-26T13:03:20.473Z,48.50
2018-05-26T13:07:23.843Z,47.90
2018-05-26T13:11:26.359Z,47.90
2018-05-26T13:15:28.886Z,44.80
2018-05-26T13:19:32.197Z,40.10
2018-05-26T13:23:35.496Z,47.10
2018-05-26T13:27:44.487Z,41.90
2018-05-26T13:31:47.931Z,47.20
2018-05-26T13:35:51.379Z,49.30
2018-05-26T13:39:53.919Z,49.00
2018-05-26T13:43:56.447Z,45.40
2018-05-26T13:48:00.512Z,47.40
2018-05-26T13:52:03.899Z,45.90
2018-05-26T13:56:06.456Z,46.00
2018-05-26T14:00:08.991Z,48.10
2018-05-26T14:04:11.547Z,44.10
2018-05-26T14:08:14.847Z,46.80
2018-05-26T14:12:17.378Z,46.50
2018-05-26T14:16:20.657Z,47.50
2018-05-26T14:20:23.239Z,47.30
2018-05-26T14:24:25.775Z,39.80
2018-05-26T14:28:28.302Z,47.40
2018-05-26T14:32:30.861Z,45.00
2018-05-26T14:36:33.379Z,44.70
2018-05-26T14:40:35.911Z,47.10
2018-05-26T14:44:39.027Z,44.50
2018-05-26T14:48:41.563Z,42.70
2018-05-26T14:52:44.106Z,47.10
2018-05-26T14:56:46.625Z,44.90
2018-05-26T15:00:49.163Z,46.50
2018-05-26T15:04:51.711Z,46.00
2018-05-26T15:08:55.014Z,41.70
2018-05-26T15:12:58.395Z,45.40
2018-05-26T15:17:00.866Z,45.50
2018-05-26T15:21:03.399Z,43.00
2018-05-26T15:25:06.712Z,46.80
2018-05-26T15:29:09.259Z,46.70
2018-05-26T15:33:11.931Z,42.70
2018-05-26T15:37:14.453Z,40.40
2018-05-26T15:41:17.748Z,41.40
2018-05-26T15:45:21.054Z,44.80
2018-05-26T15:49:23.606Z,44.80
2018-05-26T15:53:26.146Z,45.50
2018-05-26T15:57:28.691Z,40.30
2018-05-26T16:01:31.214Z,40.30
2018-05-26T16:05:33.751Z,43.10
2018-05-26T16:09:36.295Z,39.50
2018-05-26T16:13:38.823Z,43.10
2018-05-26T16:17:41.352Z,45.70
2018-05-26T16:21:43.859Z,43.10
2018-05-26T16:25:46.395Z,34.90
2018-05-26T16:29:49.699Z,35.60
2018-05-26T16:33:52.991Z,39.20
2018-05-26T16:37:55.518Z,38.60
2018-05-26T16:41:58.034Z,43.60
2018-05-26T16:46:00.570Z,41.20
2018-05-26T16:50:03.863Z,44.30
2018-05-26T16:54:07.163Z,42.40
2018-05-26T16:58:10.471Z,44.70
2018-05-26T17:02:13.758Z,43.10
2018-05-26T17:06:16.291Z,43.30
2018-05-26T17:10:18.832Z,42.00
2018-05-26T17:14:22.143Z,42.20
2018-05-26T17:18:25.448Z,40.80
2018-05-26T17:22:28.760Z,44.00
2018-05-26T17:26:32.063Z,40.60
2018-05-26T17:30:34.603Z,40.80
2018-05-26T17:34:37.139Z,41.80
2018-05-26T17:38:39.672Z,41.70
2018-05-26T17:42:42.198Z,43.00
2018-05-26T17:46:45.558Z,44.40
2018-05-26T17:50:48.090Z,44.30
2018-05-26T17:54:50.750Z,43.40
2018-05-26T17:58:53.278Z,42.20
2018-05-26T18:02:55.791Z,43.20
2018-05-26T18:06:58.323Z,43.10
2018-05-26T18:11:01.619Z,44.10
2018-05-26T18:15:04.989Z,43.70
2018-05-26T18:19:07.535Z,43.50
2018-05-26T18:23:10.075Z,44.50
2018-05-26T18:27:12.594Z,44.00
2018-05-26T18:31:15.135Z,44.10
2018-05-26T18:35:17.713Z,44.30
2018-05-26T18:39:20.259Z,44.80
2018-05-26T18:43:22.810Z,45.60
2018-05-26T18:47:25.330Z,45.10
2018-05-26T18:51:27.861Z,45.70
2018-05-26T18:55:30.402Z,45.10
2018-05-26T18:59:32.943Z,45.70
2018-05-26T19:03:35.479Z,46.10
2018-05-26T19:07:42.327Z,45.70
2018-05-26T19:11:45.040Z,46.10
2018-05-26T19:15:47.596Z,46.40
2018-05-26T19:19:50.899Z,46.30
2018-05-26T19:23:53.430Z,46.20
2018-05-26T19:27:55.934Z,46.70
2018-05-26T19:31:58.463Z,47.10
2018-05-26T19:36:01.763Z,47.40
2018-05-26T19:40:05.066Z,47.30
2018-05-26T19:44:08.372Z,47.50
2018-05-26T19:48:11.659Z,47.20
2018-05-26T19:52:14.182Z,47.20
2018-05-26T19:56:16.723Z,47.10
2018-05-26T20:00:19.264Z,47.40
2018-05-26T20:04:21.794Z,48.20
2018-05-26T20:08:24.324Z,47.60
2018-05-26T20:12:26.852Z,47.80
2018-05-26T20:16:29.386Z,47.80
2018-05-26T20:20:35.512Z,48.10
2018-05-26T20:24:39.474Z,48.80
2018-05-26T20:28:41.991Z,48.80
2018-05-26T20:32:44.528Z,48.40
2018-05-26T20:36:47.838Z,49.30
2018-05-26T20:40:52.644Z,49.20
2018-05-26T20:44:55.191Z,48.90
2018-05-26T20:48:57.732Z,49.20
2018-05-26T20:53:01.007Z,49.30
2018-05-26T20:57:03.553Z,49.20
2018-05-26T21:01:07.512Z,49.50
2018-05-26T21:05:10.974Z,49.40
2018-05-26T21:09:13.585Z,49.30
2018-05-26T21:13:16.119Z,49.40
2018-05-26T21:17:19.706Z,49.50
2018-05-26T21:21:22.234Z,49.40
2018-05-26T21:25:24.767Z,49.80
2018-05-26T21:29:27.418Z,49.80
2018-05-26T21:33:29.958Z,49.60
2018-05-26T21:37:32.498Z,50.30
2018-05-26T21:41:35.036Z,50.10
2018-05-26T21:45:38.331Z,50.80
2018-05-26T21:49:40.859Z,50.80
2018-05-26T21:53:43.366Z,51.90
2018-05-26T21:57:45.902Z,50.30
2018-05-26T22:01:49.210Z,52.30
2018-05-26T22:05:51.791Z,52.30
2018-05-26T22:09:54.305Z,51.10
2018-05-26T22:13:56.818Z,51.30
2018-05-26T22:17:59.356Z,51.30
2018-05-26T22:22:01.891Z,51.40
2018-05-26T22:26:04.417Z,51.50
2018-05-26T22:30:06.949Z,51.70
2018-05-26T22:34:09.458Z,51.40
2018-05-26T22:38:11.983Z,51.70
2018-05-26T22:42:14.519Z,51.70
2018-05-26T22:46:17.047Z,53.90
2018-05-26T22:50:19.583Z,53.20
2018-05-26T22:54:22.100Z,53.00
2018-05-26T22:58:25.394Z,51.70
2018-05-26T23:02:28.690Z,52.60
2018-05-26T23:06:31.219Z,52.90
2018-05-26T23:10:33.751Z,52.50
2018-05-26T23:14:36.259Z,53.90
2018-05-26T23:18:39.557Z,53.80
2018-05-26T23:22:42.106Z,53.80
2018-05-26T23:26:44.650Z,52.00
2018-05-26T23:30:47.178Z,54.00
2018-05-26T23:34:49.718Z,53.70
2018-05-26T23:38:52.232Z,54.00
2018-05-26T23:42:54.763Z,53.70
2018-05-26T23:46:58.061Z,54.20
2018-05-26T23:51:00.586Z,54.20
2018-05-26T23:55:03.115Z,53.80
2018-05-26T23:59:05.626Z,54.50
